Time;durP1;ratioP1;P1;durP2;ratioP2;P2;SDS_P1;SDS_P2;PMS_P1;PMS_P2;Temp;Humidity;BMP_temperature;BMP_pressure;BME280_temperature;BME280_humidity;BME280_pressure;Samples;Min_cycle;Max_cycle;Signal;HPM_P1;HPM_P2
2022/03/22 00:01:24;;;;;;;55.72;25.98;;;4.50;99.30;;;;;;5106134;27;20042;-67
2022/03/22 00:03:49;;;;;;;48.08;25.15;;;4.50;99.60;;;;;;5106115;28;20375;-66
2022/03/22 00:06:15;;;;;;;50.67;26.77;;;4.40;99.50;;;;;;5107035;27;20039;-66
2022/03/22 00:08:41;;;;;;;49.45;25.55;;;4.40;99.50;;;;;;5105080;27;20122;-66
2022/03/22 00:11:07;;;;;;;49.67;27.00;;;4.40;99.60;;;;;;5103244;27;20044;-66
2022/03/22 00:13:33;;;;;;;50.00;25.27;;;4.30;99.90;;;;;;5113892;27;20471;-67
2022/03/22 00:15:59;;;;;;;51.05;24.75;;;4.30;99.90;;;;;;5085160;27;20046;-67
2022/03/22 00:18:25;;;;;;;52.95;26.77;;;4.30;99.90;;;;;;5086175;27;20087;-66
2022/03/22 00:20:50;;;;;;;53.72;25.90;;;4.30;99.90;;;;;;5092078;27;20031;-67
2022/03/22 00:23:19;;;;;;;50.53;26.83;;;4.30;99.90;;;;;;5086610;27;20031;-65
2022/03/22 00:25:45;;;;;;;55.88;27.67;;;4.30;99.90;;;;;;5107002;27;20050;-66
2022/03/22 00:28:12;;;;;;;54.47;28.13;;;4.30;99.90;;;;;;5100073;27;20103;-66
2022/03/22 00:30:39;;;;;;;53.95;28.13;;;4.30;99.90;;;;;;5101194;27;20058;-67
2022/03/22 00:33:06;;;;;;;50.95;26.48;;;4.20;99.90;;;;;;5124633;27;20049;-66
2022/03/22 00:35:37;;;;;;;48.95;25.10;;;4.20;99.90;;;;;;5108096;27;20490;-65
2022/03/22 00:38:08;;;;;;;53.58;26.10;;;4.20;99.90;;;;;;5107127;27;20049;-66
2022/03/22 00:40:35;;;;;;;49.65;25.75;;;4.20;99.90;;;;;;5104737;27;20039;-66
2022/03/22 00:43:00;;;;;;;55.85;28.75;;;4.20;99.90;;;;;;5111491;27;20458;-66
2022/03/22 00:45:30;;;;;;;55.75;26.73;;;4.30;99.90;;;;;;5111966;27;20073;-66
2022/03/22 00:47:57;;;;;;;58.42;29.30;;;4.20;99.90;;;;;;5105507;27;20050;-67
2022/03/22 00:50:29;;;;;;;54.05;28.13;;;4.20;99.90;;;;;;5125870;27;20063;-66
2022/03/22 00:52:56;;;;;;;54.85;28.35;;;4.20;99.90;;;;;;5103196;27;20101;-66
2022/03/22 00:55:23;;;;;;;58.92;29.45;;;4.20;99.90;;;;;;5098310;27;20032;-66
2022/03/22 00:57:51;;;;;;;59.20;30.13;;;4.10;99.90;;;;;;5099984;27;20031;-66
2022/03/22 01:00:17;;;;;;;62.22;30.20;;;4.10;99.90;;;;;;5107979;27;20040;-66
2022/03/22 01:02:49;;;;;;;61.28;28.95;;;4.10;99.90;;;;;;5080217;28;20043;-65
2022/03/22 01:05:17;;;;;;;56.50;29.15;;;4.10;99.90;;;;;;5108024;27;20027;-65
2022/03/22 01:07:44;;;;;;;54.25;28.95;;;4.10;99.90;;;;;;5084316;27;20074;-65
2022/03/22 01:10:11;;;;;;;53.80;27.08;;;4.00;99.90;;;;;;5110841;27;20474;-67
2022/03/22 01:12:40;;;;;;;57.80;30.60;;;4.00;99.90;;;;;;5112146;27;20391;-66
2022/03/22 01:15:12;;;;;;;56.85;29.65;;;4.00;99.90;;;;;;5111855;27;20037;-66
2022/03/22 01:17:39;;;;;;;57.47;28.00;;;4.10;99.90;;;;;;5108274;27;20059;-66
2022/03/22 01:20:10;;;;;;;65.28;32.50;;;4.00;99.90;;;;;;5103954;27;20384;-66
2022/03/22 01:22:41;;;;;;;60.97;29.50;;;4.00;99.90;;;;;;5087632;27;20487;-66
2022/03/22 01:25:09;;;;;;;60.33;28.35;;;4.00;99.90;;;;;;5111252;27;20403;-66
2022/03/22 01:27:36;;;;;;;57.35;29.85;;;4.00;99.90;;;;;;5094796;27;20067;-66
2022/03/22 01:30:03;;;;;;;59.50;29.80;;;3.90;99.90;;;;;;5108988;27;20031;-65
2022/03/22 01:32:29;;;;;;;54.90;27.50;;;3.90;99.90;;;;;;5101518;27;20452;-65
2022/03/22 01:34:54;;;;;;;59.47;30.00;;;3.90;99.90;;;;;;5105838;27;20059;-66
2022/03/22 01:37:20;;;;;;;60.60;30.00;;;3.90;99.90;;;;;;5105621;27;20122;-66
2022/03/22 01:39:45;;;;;;;61.35;30.83;;;3.90;99.90;;;;;;5076739;28;20053;-65
2022/03/22 01:42:11;;;;;;;58.17;28.75;;;3.90;99.90;;;;;;5089581;28;20460;-66
2022/03/22 01:44:36;;;;;;;58.10;29.08;;;3.90;99.90;;;;;;5104866;27;20135;-66
2022/03/22 01:47:03;;;;;;;60.58;30.55;;;3.90;99.90;;;;;;5090276;27;20720;-66
2022/03/22 01:49:29;;;;;;;66.03;31.45;;;3.90;99.90;;;;;;5108324;27;20074;-65
2022/03/22 01:51:55;;;;;;;63.70;31.42;;;3.90;99.90;;;;;;5102439;27;20095;-66
2022/03/22 01:54:21;;;;;;;63.58;31.20;;;3.90;99.90;;;;;;5102706;27;20045;-66
2022/03/22 01:56:49;;;;;;;62.13;31.02;;;3.90;99.90;;;;;;5125986;27;20055;-66
2022/03/22 01:59:15;;;;;;;71.13;32.47;;;3.90;99.90;;;;;;5099676;27;20035;-66
2022/03/22 02:07:13;;;;;;;63.08;31.58;;;3.80;99.90;;;;;;5088817;28;20114;-66
2022/03/22 02:09:38;;;;;;;60.58;31.55;;;3.80;99.90;;;;;;5125455;27;20035;-66
2022/03/22 02:12:04;;;;;;;61.30;31.52;;;3.80;99.90;;;;;;5097273;28;20635;-65
2022/03/22 02:14:30;;;;;;;67.00;32.50;;;3.80;99.90;;;;;;5075843;28;20527;-65
2022/03/22 02:16:55;;;;;;;66.07;31.73;;;3.80;99.90;;;;;;5071797;27;20063;-66
2022/03/22 02:19:21;;;;;;;62.47;30.23;;;3.70;99.90;;;;;;5104159;27;20047;-66
2022/03/22 02:21:54;;;;;;;59.03;30.30;;;3.70;99.90;;;;;;5102030;27;20081;-66
2022/03/22 02:24:20;;;;;;;64.00;31.17;;;3.70;99.90;;;;;;5096837;27;20713;-66
2022/03/22 02:26:46;;;;;;;65.25;31.50;;;3.60;99.90;;;;;;5104551;27;20039;-65
2022/03/22 02:29:11;;;;;;;58.92;27.25;;;3.60;99.90;;;;;;5101461;27;20078;-66
2022/03/22 02:31:38;;;;;;;69.00;30.45;;;3.60;99.90;;;;;;5095769;28;20432;-65
2022/03/22 02:34:04;;;;;;;71.47;31.90;;;3.50;99.90;;;;;;5109539;27;20046;-66
2022/03/22 02:36:29;;;;;;;64.22;33.58;;;3.50;99.90;;;;;;5104776;28;20078;-66
2022/03/22 02:38:55;;;;;;;61.92;29.45;;;3.60;99.90;;;;;;5098397;27;20082;-67
2022/03/22 02:41:24;;;;;;;61.50;30.40;;;3.70;99.90;;;;;;5098474;28;20032;-66
2022/03/22 02:43:51;;;;;;;62.00;30.17;;;3.70;99.90;;;;;;5092031;28;20089;-66
2022/03/22 02:46:17;;;;;;;65.30;32.67;;;3.70;99.90;;;;;;5074001;28;20115;-65
2022/03/22 02:48:43;;;;;;;61.13;30.73;;;3.60;99.90;;;;;;5104713;28;20066;-65
2022/03/22 02:51:10;;;;;;;61.30;30.25;;;3.60;99.90;;;;;;5099909;28;20125;-67
2022/03/22 02:53:36;;;;;;;62.65;29.95;;;3.60;99.90;;;;;;5091777;28;20053;-65
2022/03/22 02:56:02;;;;;;;61.00;29.83;;;3.50;99.90;;;;;;5107580;27;20519;-66
2022/03/22 02:58:28;;;;;;;60.78;29.85;;;3.50;99.90;;;;;;5099688;27;20351;-66
2022/03/22 03:00:53;;;;;;;62.45;29.88;;;3.50;99.90;;;;;;5112829;27;20031;-65
2022/03/22 03:03:21;;;;;;;60.72;30.98;;;3.50;99.90;;;;;;5094894;27;20039;-65
2022/03/22 03:05:48;;;;;;;67.05;32.22;;;3.40;99.90;;;;;;5093776;28;20074;-65
2022/03/22 03:08:15;;;;;;;65.55;31.80;;;3.40;99.90;;;;;;5108028;27;20038;-66
2022/03/22 03:10:41;;;;;;;62.67;30.27;;;3.30;99.90;;;;;;5100851;27;20122;-66
2022/03/22 03:13:07;;;;;;;67.43;31.17;;;3.40;99.90;;;;;;5108646;28;20127;-65
2022/03/22 03:15:32;;;;;;;68.88;32.53;;;3.30;99.90;;;;;;5099998;27;20426;-65
2022/03/22 03:17:58;;;;;;;64.20;31.90;;;3.40;99.90;;;;;;5093765;27;22097;-66
2022/03/22 03:20:24;;;;;;;59.72;29.27;;;3.50;99.90;;;;;;5083186;27;20035;-65
2022/03/22 03:22:49;;;;;;;58.35;29.67;;;3.40;99.90;;;;;;5083671;27;20093;-66
2022/03/22 03:25:15;;;;;;;63.03;30.73;;;3.40;99.90;;;;;;5103131;27;20046;-66
2022/03/22 03:27:41;;;;;;;63.28;29.85;;;3.30;99.90;;;;;;5110216;27;20067;-65
2022/03/22 03:30:07;;;;;;;62.83;30.00;;;3.30;99.90;;;;;;5110698;27;20035;-66
2022/03/22 03:32:34;;;;;;;65.10;32.63;;;3.30;99.90;;;;;;5106716;27;20099;-65
2022/03/22 03:35:00;;;;;;;61.80;31.08;;;3.30;99.90;;;;;;5086584;28;20036;-66
2022/03/22 03:37:29;;;;;;;71.70;33.15;;;3.30;99.90;;;;;;5108243;27;20042;-66
2022/03/22 03:39:55;;;;;;;62.15;31.98;;;3.40;99.90;;;;;;5098649;27;20027;-65
2022/03/22 03:42:20;;;;;;;63.85;30.95;;;3.40;99.90;;;;;;5110879;27;20365;-65
2022/03/22 03:47:30;;;;;;;66.50;32.78;;;3.40;99.90;;;;;;5101593;27;20546;-65
2022/03/22 03:49:58;;;;;;;64.47;31.95;;;3.40;99.90;;;;;;5102859;27;20142;-66
2022/03/22 03:52:30;;;;;;;60.90;31.45;;;3.40;99.90;;;;;;5090740;27;20035;-66
2022/03/22 03:54:57;;;;;;;64.85;31.20;;;3.40;99.90;;;;;;5082314;27;20331;-67
2022/03/22 03:57:23;;;;;;;67.57;32.88;;;3.50;99.90;;;;;;5080947;28;20088;-65
2022/03/22 03:59:50;;;;;;;66.22;32.97;;;3.50;99.90;;;;;;5097260;27;20039;-65
2022/03/22 04:02:16;;;;;;;64.65;31.15;;;3.60;99.90;;;;;;5091718;28;20047;-66
2022/03/22 04:04:43;;;;;;;59.33;29.02;;;3.60;99.90;;;;;;5097015;28;20047;-66
2022/03/22 04:07:10;;;;;;;58.40;29.55;;;3.50;99.90;;;;;;5080518;27;20047;-65
2022/03/22 04:09:38;;;;;;;60.35;31.13;;;3.50;99.90;;;;;;5105063;27;20067;-66
2022/03/22 04:12:05;;;;;;;53.35;27.90;;;3.50;99.90;;;;;;5112707;27;20103;-65
2022/03/22 04:14:31;;;;;;;52.75;26.80;;;3.50;99.90;;;;;;5091201;27;20043;-66
2022/03/22 04:16:57;;;;;;;62.42;29.30;;;3.50;99.90;;;;;;5102665;27;20067;-65
2022/03/22 04:19:24;;;;;;;53.72;28.20;;;3.50;99.90;;;;;;5106808;28;20044;-65
2022/03/22 04:21:50;;;;;;;54.08;27.52;;;3.40;99.90;;;;;;5082707;28;20415;-66
2022/03/22 04:24:16;;;;;;;65.05;30.15;;;3.40;99.90;;;;;;5094330;28;20123;-65
2022/03/22 04:26:43;;;;;;;65.97;30.75;;;3.40;99.90;;;;;;5079641;28;20036;-67
2022/03/22 04:34:43;;;;;;;63.65;30.27;;;3.40;99.90;;;;;;5107054;28;20044;-66
2022/03/22 04:37:12;;;;;;;61.63;30.67;;;3.40;99.90;;;;;;5096330;28;20068;-65
2022/03/22 04:39:39;;;;;;;57.10;29.52;;;3.40;99.90;;;;;;5093081;28;20023;-65
2022/03/22 04:42:05;;;;;;;55.55;29.10;;;3.40;99.90;;;;;;5108524;28;20039;-66
2022/03/22 04:44:31;;;;;;;59.22;29.92;;;3.40;99.90;;;;;;5093355;28;20374;-65
2022/03/22 04:46:58;;;;;;;58.67;29.58;;;3.40;99.90;;;;;;5071772;28;20040;-66
2022/03/22 04:49:25;;;;;;;56.88;28.33;;;3.30;99.90;;;;;;5091339;28;20486;-66
2022/03/22 04:57:21;;;;;;;57.80;28.80;;;3.20;99.90;;;;;;5088822;28;20055;-65
2022/03/22 04:59:47;;;;;;;58.50;30.35;;;3.20;99.90;;;;;;5092889;28;20031;-66
2022/03/22 05:02:13;;;;;;;59.70;29.42;;;3.20;99.90;;;;;;5123358;27;20040;-65
2022/03/22 05:04:39;;;;;;;55.10;29.27;;;3.20;99.90;;;;;;5085529;28;20036;-68
2022/03/22 05:07:05;;;;;;;60.28;27.83;;;3.30;99.90;;;;;;5096773;28;20035;-66
2022/03/22 05:09:30;;;;;;;59.90;31.00;;;3.30;99.90;;;;;;5088183;28;20344;-66
2022/03/22 05:12:00;;;;;;;63.00;30.15;;;3.30;99.90;;;;;;5105925;28;20065;-66
2022/03/22 05:14:26;;;;;;;59.22;28.38;;;3.30;99.90;;;;;;5108190;28;20050;-65
2022/03/22 05:16:52;;;;;;;58.47;30.55;;;3.30;99.90;;;;;;5090522;28;20130;-65
2022/03/22 05:19:18;;;;;;;62.63;28.95;;;3.30;99.90;;;;;;5072524;28;20031;-65
2022/03/22 05:21:44;;;;;;;65.28;31.90;;;3.30;99.90;;;;;;5097811;28;20426;-66
2022/03/22 05:24:10;;;;;;;57.35;28.85;;;3.30;99.90;;;;;;5093108;28;20040;-66
2022/03/22 05:26:35;;;;;;;60.25;30.20;;;3.30;99.90;;;;;;5094959;28;20032;-65
2022/03/22 05:29:04;;;;;;;64.93;31.92;;;3.30;99.90;;;;;;5107863;27;20395;-66
2022/03/22 05:31:31;;;;;;;63.72;30.83;;;3.30;99.90;;;;;;5106577;28;20039;-67
2022/03/22 05:33:57;;;;;;;62.03;30.65;;;3.40;99.90;;;;;;5103618;28;20487;-65
2022/03/22 05:36:23;;;;;;;63.03;30.80;;;3.40;99.90;;;;;;5094474;28;20044;-65
2022/03/22 05:38:49;;;;;;;62.90;31.83;;;3.40;99.90;;;;;;5086467;28;20118;-65
2022/03/22 05:41:14;;;;;;;59.22;30.33;;;3.50;99.90;;;;;;5076077;28;20145;-66
2022/03/22 05:43:41;;;;;;;60.80;31.17;;;3.50;99.90;;;;;;5099375;28;20336;-65
2022/03/22 05:46:08;;;;;;;61.58;30.88;;;3.50;99.90;;;;;;5097320;28;20119;-66
2022/03/22 05:48:34;;;;;;;58.83;28.70;;;3.60;99.90;;;;;;5088409;28;20082;-66
2022/03/22 05:50:59;;;;;;;61.45;30.90;;;3.60;99.90;;;;;;5089910;28;20067;-65
2022/03/22 05:53:25;;;;;;;62.00;30.55;;;3.60;99.90;;;;;;5067162;28;20048;-66
2022/03/22 05:55:51;;;;;;;60.65;31.08;;;3.60;99.90;;;;;;5098721;28;20062;-65
2022/03/22 05:58:16;;;;;;;58.83;30.48;;;3.60;99.90;;;;;;5092536;28;20116;-66
2022/03/22 06:00:42;;;;;;;60.28;31.42;;;3.60;99.90;;;;;;5094871;28;20467;-67
2022/03/22 06:03:07;;;;;;;68.68;31.70;;;3.60;99.90;;;;;;5098661;28;20139;-66
2022/03/22 06:05:33;;;;;;;63.13;31.17;;;3.60;99.90;;;;;;5102110;28;20138;-65
2022/03/22 06:08:00;;;;;;;59.50;31.17;;;3.60;99.90;;;;;;5086925;28;20059;-66
2022/03/22 06:10:29;;;;;;;61.47;31.50;;;3.60;99.90;;;;;;5069506;28;20040;-66
2022/03/22 06:12:57;;;;;;;60.03;31.42;;;3.60;99.90;;;;;;5105234;28;20085;-65
2022/03/22 06:15:24;;;;;;;59.80;30.27;;;3.60;99.90;;;;;;5093138;28;20048;-65
2022/03/22 06:17:56;;;;;;;59.63;29.40;;;3.60;99.90;;;;;;5100388;28;20395;-65
2022/03/22 06:20:24;;;;;;;58.05;30.67;;;3.60;99.90;;;;;;5107510;28;20035;-65
2022/03/22 06:22:50;;;;;;;60.92;29.92;;;3.70;99.90;;;;;;5102659;28;20023;-65
2022/03/22 06:25:17;;;;;;;61.60;30.88;;;3.70;99.90;;;;;;5100891;28;20050;-65
2022/03/22 06:27:44;;;;;;;56.40;29.58;;;3.80;99.90;;;;;;5095839;28;20069;-66
2022/03/22 06:30:10;;;;;;;61.67;30.33;;;3.80;99.90;;;;;;5084383;28;20476;-65
2022/03/22 06:32:45;;;;;;;63.20;30.17;;;3.90;99.90;;;;;;5102455;28;20139;-65
2022/03/22 06:35:12;;;;;;;57.00;29.48;;;4.00;99.90;;;;;;5091269;28;20032;-66
2022/03/22 06:37:38;;;;;;;60.63;31.00;;;4.10;99.90;;;;;;5098461;28;20044;-66
2022/03/22 06:40:06;;;;;;;59.67;30.15;;;4.20;99.90;;;;;;5076321;28;20123;-66
2022/03/22 06:42:31;;;;;;;58.05;30.73;;;4.40;99.90;;;;;;5087923;28;20048;-66
2022/03/22 06:44:57;;;;;;;60.08;30.75;;;4.50;99.90;;;;;;5081655;28;20479;-66
2022/03/22 06:47:23;;;;;;;59.65;30.75;;;4.60;99.90;;;;;;5105608;28;20043;-65
2022/03/22 06:49:49;;;;;;;58.17;30.73;;;4.80;99.90;;;;;;5108192;28;20039;-66
2022/03/22 06:52:14;;;;;;;56.65;31.00;;;5.10;99.90;;;;;;5083733;28;20065;-66
2022/03/22 06:54:40;;;;;;;59.05;30.98;;;5.30;99.90;;;;;;5086914;28;20036;-66
2022/03/22 06:57:06;;;;;;;58.78;29.63;;;5.40;99.90;;;;;;5087725;28;20036;-66
2022/03/22 06:59:32;;;;;;;60.45;30.52;;;5.70;99.90;;;;;;5106599;28;20382;-66
2022/03/22 07:01:58;;;;;;;59.20;31.15;;;5.80;99.90;;;;;;5073475;28;20047;-66
2022/03/22 07:04:23;;;;;;;54.67;30.73;;;6.00;99.90;;;;;;5092002;28;20112;-67
2022/03/22 07:06:49;;;;;;;57.58;30.70;;;6.10;99.90;;;;;;5103270;28;20237;-66
2022/03/22 07:09:14;;;;;;;57.40;31.13;;;6.30;99.90;;;;;;5097171;28;20079;-66
2022/03/22 07:11:52;;;;;;;60.60;31.05;;;6.50;99.90;;;;;;5068887;28;20109;-66
2022/03/22 07:14:25;;;;;;;59.47;32.28;;;6.70;99.90;;;;;;5092248;28;20048;-67
2022/03/22 07:16:51;;;;;;;58.72;32.15;;;6.90;99.90;;;;;;5095761;28;20079;-70
2022/03/22 07:19:18;;;;;;;49.80;29.33;;;7.10;99.90;;;;;;5101677;28;20070;-67
2022/03/22 07:21:45;;;;;;;51.72;30.63;;;7.30;99.90;;;;;;5073776;28;20398;-67
2022/03/22 07:24:12;;;;;;;57.35;31.05;;;7.50;99.90;;;;;;5093000;28;20044;-67
2022/03/22 07:26:38;;;;;;;55.10;30.55;;;7.70;99.90;;;;;;5091012;28;20092;-66
2022/03/22 07:29:04;;;;;;;55.45;30.60;;;7.90;99.90;;;;;;5101002;28;20486;-67
2022/03/22 07:31:30;;;;;;;52.72;29.60;;;8.10;99.90;;;;;;5092049;28;20050;-67
2022/03/22 07:33:56;;;;;;;53.60;30.85;;;8.30;99.90;;;;;;5093975;28;20067;-67
2022/03/22 07:36:22;;;;;;;52.25;31.00;;;8.50;99.90;;;;;;5084864;28;20078;-67
2022/03/22 07:38:48;;;;;;;50.47;27.55;;;8.70;99.70;;;;;;5094532;28;20040;-67
2022/03/22 07:41:14;;;;;;;48.72;28.90;;;8.90;98.80;;;;;;5091536;28;20080;-68
2022/03/22 07:43:41;;;;;;;46.90;28.40;;;9.10;97.70;;;;;;5108210;28;20505;-67
2022/03/22 07:46:07;;;;;;;49.90;29.13;;;9.30;96.90;;;;;;5077986;28;20043;-67
2022/03/22 07:48:33;;;;;;;49.97;28.67;;;9.60;96.00;;;;;;5080712;28;20044;-67
2022/03/22 07:53:43;;;;;;;49.00;29.00;;;10.10;93.00;;;;;;5107316;28;20043;-68
2022/03/22 07:56:09;;;;;;;46.30;29.13;;;10.40;92.60;;;;;;5109276;28;20047;-68
2022/03/22 07:58:35;;;;;;;46.17;27.35;;;10.70;91.70;;;;;;5085702;28;20488;-67
2022/03/22 08:01:01;;;;;;;43.95;28.52;;;10.90;90.60;;;;;;5108974;28;20035;-67
2022/03/22 08:03:26;;;;;;;42.42;26.13;;;11.00;89.70;;;;;;5110895;28;20444;-68
2022/03/22 08:05:52;;;;;;;47.00;28.27;;;11.00;89.00;;;;;;5103143;28;20077;-67
2022/03/22 08:08:18;;;;;;;44.75;27.20;;;11.00;87.30;;;;;;5088188;28;20035;-68
2022/03/22 08:10:45;;;;;;;44.08;26.73;;;11.10;86.90;;;;;;5091004;28;20043;-67
2022/03/22 08:13:12;;;;;;;41.90;26.23;;;11.00;86.10;;;;;;5080346;28;20074;-67
2022/03/22 08:15:38;;;;;;;45.28;28.77;;;11.00;83.90;;;;;;5083238;28;20531;-67
2022/03/22 08:18:04;;;;;;;48.03;27.83;;;11.00;84.20;;;;;;5124102;27;20047;-67
2022/03/22 08:20:30;;;;;;;41.53;26.92;;;11.10;83.60;;;;;;5092145;27;20463;-67
2022/03/22 08:23:04;;;;;;;43.10;26.05;;;11.10;82.20;;;;;;5096891;28;20093;-68
2022/03/22 08:25:38;;;;;;;44.63;26.80;;;11.20;81.50;;;;;;5091664;28;20122;-67
2022/03/22 08:28:06;;;;;;;45.50;26.08;;;11.30;80.50;;;;;;5102610;27;20092;-68
2022/03/22 08:30:32;;;;;;;47.35;26.67;;;11.30;80.60;;;;;;5112922;27;20089;-68
2022/03/22 08:32:59;;;;;;;42.67;26.35;;;11.40;80.40;;;;;;5088546;28;20036;-68
2022/03/22 08:35:26;;;;;;;43.50;27.25;;;11.50;80.10;;;;;;5095949;27;20035;-67
2022/03/22 08:37:53;;;;;;;43.13;27.52;;;11.60;79.50;;;;;;5091812;27;20115;-68
2022/03/22 08:40:19;;;;;;;42.58;27.08;;;11.60;80.10;;;;;;5113153;27;20078;-69
2022/03/22 08:42:46;;;;;;;43.63;26.70;;;11.80;80.20;;;;;;5109777;27;20063;-68
2022/03/22 08:45:23;;;;;;;43.78;27.30;;;11.90;80.10;;;;;;5104503;27;20070;-69
2022/03/22 08:47:52;;;;;;;43.20;24.10;;;12.10;79.80;;;;;;5100604;27;20480;-69
2022/03/22 08:50:20;;;;;;;40.15;24.10;;;12.20;78.20;;;;;;5110972;27;20062;-68
2022/03/22 08:52:47;;;;;;;43.78;26.80;;;12.40;78.00;;;;;;5110327;28;20126;-68
2022/03/22 08:55:14;;;;;;;40.10;23.70;;;12.50;77.60;;;;;;5111261;27;20058;-67
2022/03/22 08:57:41;;;;;;;39.58;23.45;;;12.60;70.60;;;;;;5103871;27;20424;-68
2022/03/22 09:00:11;;;;;;;40.50;23.27;;;12.70;67.80;;;;;;5110197;27;20455;-67
2022/03/22 09:02:44;;;;;;;38.97;23.23;;;12.90;68.80;;;;;;5109064;27;20035;-68
2022/03/22 09:07:59;;;;;;;36.90;23.17;;;13.30;69.40;;;;;;5102956;27;20105;-68
2022/03/22 09:10:26;;;;;;;40.88;22.85;;;13.80;69.70;;;;;;5091209;27;20050;-68
2022/03/22 09:12:52;;;;;;;42.28;23.02;;;14.20;67.70;;;;;;5077878;28;20045;-68
2022/03/22 09:15:22;;;;;;;34.45;21.20;;;14.60;66.50;;;;;;5074445;28;20035;-68
2022/03/22 09:17:48;;;;;;;;;;;14.60;64.20;;;;;;5083065;28;20048;-68
2022/03/22 09:20:14;;;;;;;32.70;20.02;;;14.60;59.20;;;;;;5093521;28;19983;-69
2022/03/22 09:22:45;;;;;;;38.30;22.02;;;14.50;57.80;;;;;;5097947;28;20028;-68
2022/03/22 09:25:11;;;;;;;33.35;20.23;;;14.40;61.20;;;;;;5099705;28;20047;-67
2022/03/22 09:27:41;;;;;;;30.15;18.80;;;14.40;58.60;;;;;;5100320;28;20039;-68
2022/03/22 09:30:08;;;;;;;32.97;19.50;;;14.40;59.70;;;;;;5105052;28;20168;-68
2022/03/22 09:32:38;;;;;;;34.60;19.70;;;14.40;59.40;;;;;;5106461;28;20058;-68
2022/03/22 09:35:10;;;;;;;35.85;20.92;;;14.60;60.00;;;;;;5100860;28;20071;-68
2022/03/22 09:37:36;;;;;;;33.45;18.55;;;14.80;61.10;;;;;;5079467;28;20587;-69
2022/03/22 09:40:03;;;;;;;28.98;17.67;;;14.90;59.20;;;;;;5091083;28;20447;-68
2022/03/22 09:42:29;;;;;;;29.17;17.77;;;15.00;55.90;;;;;;5098721;28;20044;-68
2022/03/22 09:44:56;;;;;;;33.45;18.67;;;15.00;55.10;;;;;;5104571;28;20139;-69
2022/03/22 09:47:22;;;;;;;34.78;20.42;;;15.10;57.10;;;;;;5105242;28;20080;-69
2022/03/22 09:49:47;;;;;;;36.53;22.05;;;15.10;57.70;;;;;;5106891;28;20043;-69
2022/03/22 09:52:14;;;;;;;31.75;20.17;;;15.30;59.40;;;;;;5093609;28;20732;-68
2022/03/22 09:54:41;;;;;;;32.58;18.95;;;15.40;57.60;;;;;;5104616;28;20101;-69
2022/03/22 09:57:07;;;;;;;31.90;18.08;;;15.40;56.20;;;;;;5103298;28;20046;-68
2022/03/22 09:59:34;;;;;;;34.25;19.65;;;15.40;55.30;;;;;;5098401;28;20044;-68
2022/03/22 10:02:00;;;;;;;36.90;22.67;;;15.50;56.10;;;;;;5106410;28;20040;-68
2022/03/22 10:04:39;;;;;;;35.78;22.55;;;15.60;58.20;;;;;;5103313;28;20187;-68
2022/03/22 10:07:06;;;;;;;35.25;22.70;;;15.70;58.80;;;;;;5080144;28;20040;-68
2022/03/22 10:09:39;;;;;;;36.42;22.27;;;15.80;58.60;;;;;;5104287;28;20447;-70
2022/03/22 10:12:07;;;;;;;39.53;23.05;;;15.90;59.00;;;;;;5104029;28;20087;-68
2022/03/22 10:14:38;;;;;;;37.75;22.95;;;16.00;59.10;;;;;;5091475;28;20175;-67
2022/03/22 10:17:14;;;;;;;;;;;15.80;56.90;;;;;;5082913;28;20078;-68
2022/03/22 10:19:46;;;;;;;32.30;21.23;;;15.80;57.30;;;;;;5106390;28;19956;-70
2022/03/22 10:22:12;;;;;;;37.72;21.23;;;15.90;58.80;;;;;;5082073;28;20716;-68
2022/03/22 10:24:46;;;;;;;33.08;19.67;;;15.90;58.50;;;;;;5104803;28;20124;-66
2022/03/22 10:27:41;;;;;;;35.92;22.10;;;16.10;55.90;;;;;;5107849;28;20047;-69
2022/03/22 10:30:08;;;;;;;34.20;20.77;;;16.10;55.50;;;;;;5070697;28;20476;-68
2022/03/22 10:32:39;;;;;;;34.67;22.52;;;16.20;56.00;;;;;;5087733;28;20085;-68
2022/03/22 10:35:20;;;;;;;35.25;21.27;;;16.20;56.20;;;;;;5104590;28;20126;-68
2022/03/22 10:37:46;;;;;;;;;;;16.30;55.80;;;;;;5081338;28;20039;-68
2022/03/22 10:40:20;;;;;;;36.03;21.23;;;16.40;55.30;;;;;;5099438;28;20275;-69
2022/03/22 10:42:47;;;;;;;35.30;21.52;;;16.50;56.50;;;;;;5098346;28;20100;-68
2022/03/22 10:45:12;;;;;;;41.13;21.65;;;16.60;57.30;;;;;;5100334;28;20050;-68
2022/03/22 10:47:38;;;;;;;35.30;21.33;;;16.70;56.50;;;;;;5101845;28;20039;-68
2022/03/22 10:50:05;;;;;;;34.30;21.15;;;16.70;55.30;;;;;;5099103;28;20085;-69
2022/03/22 10:52:31;;;;;;;35.88;20.85;;;16.80;55.80;;;;;;5098890;28;20047;-69
2022/03/22 10:54:57;;;;;;;37.47;21.35;;;16.80;55.30;;;;;;5102133;28;20118;-68
2022/03/22 10:57:29;;;;;;;35.67;21.17;;;16.90;55.40;;;;;;5105170;28;20114;-68
2022/03/22 10:59:57;;;;;;;34.78;21.23;;;16.90;54.90;;;;;;5106985;28;20621;-68
2022/03/22 11:02:24;;;;;;;36.42;21.65;;;17.00;54.70;;;;;;5100036;28;20043;-69
2022/03/22 11:04:51;;;;;;;37.15;19.90;;;17.00;54.40;;;;;;5083017;28;20132;-68
2022/03/22 11:07:17;;;;;;;32.15;19.75;;;17.00;54.50;;;;;;5098819;28;20047;-68
2022/03/22 11:09:43;;;;;;;38.20;20.73;;;17.00;53.90;;;;;;5101782;28;20032;-70
2022/03/22 11:12:10;;;;;;;32.70;19.70;;;17.00;53.50;;;;;;5096976;28;20173;-67
2022/03/22 11:14:36;;;;;;;33.75;18.67;;;17.10;53.00;;;;;;5096626;28;20032;-69
2022/03/22 11:17:03;;;;;;;33.63;19.75;;;17.10;52.40;;;;;;5100421;28;20048;-68
2022/03/22 11:19:29;;;;;;;37.28;20.40;;;17.20;52.60;;;;;;5108087;27;20044;-68
2022/03/22 11:22:04;;;;;;;31.90;19.98;;;17.20;52.60;;;;;;5101323;28;20035;-69
2022/03/22 11:24:29;;;;;;;33.63;19.23;;;17.40;52.50;;;;;;5102719;28;20036;-70
2022/03/22 11:26:58;;;;;;;32.95;19.20;;;17.50;53.00;;;;;;5107489;27;20139;-69
2022/03/22 11:29:25;;;;;;;34.08;19.23;;;17.50;52.00;;;;;;5092636;28;20112;-69
2022/03/22 11:34:35;;;;;;;33.13;18.55;;;17.60;50.50;;;;;;5103594;28;20126;-70
2022/03/22 11:37:01;;;;;;;32.95;17.83;;;17.70;50.50;;;;;;5105556;28;20114;-70
2022/03/22 11:42:19;;;;;;;35.90;18.33;;;17.80;50.00;;;;;;5108013;28;20437;-68
2022/03/22 11:44:59;;;;;;;33.53;17.77;;;17.80;49.20;;;;;;5110485;28;20035;-70
2022/03/22 11:47:36;;;;;;;34.17;19.05;;;17.90;48.90;;;;;;5090780;28;20231;-68
2022/03/22 11:50:05;;;;;;;33.33;18.48;;;17.90;49.50;;;;;;5105313;28;20445;-68
2022/03/22 11:52:39;;;;;;;35.60;18.15;;;17.90;48.80;;;;;;5100382;28;20118;-68
2022/03/22 11:55:16;;;;;;;35.30;20.08;;;18.00;48.40;;;;;;5083327;28;20036;-68
2022/03/22 11:57:47;;;;;;;35.97;18.70;;;17.90;47.90;;;;;;5106642;28;20436;-69
2022/03/22 12:00:20;;;;;;;33.55;18.77;;;18.00;48.00;;;;;;5089639;28;20031;-69
2022/03/22 12:02:52;;;;;;;36.15;19.58;;;18.00;49.00;;;;;;5102689;28;20042;-68
2022/03/22 12:05:19;;;;;;;36.75;19.73;;;18.20;48.00;;;;;;5105332;28;20092;-67
2022/03/22 12:07:46;;;;;;;38.95;19.70;;;18.10;48.30;;;;;;5095312;28;20079;-68
2022/03/22 12:10:15;;;;;;;33.17;18.92;;;18.20;48.30;;;;;;5085891;28;20040;-67
2022/03/22 12:12:50;;;;;;;33.88;18.95;;;18.20;48.20;;;;;;5086076;28;20031;-67
2022/03/22 12:15:18;;;;;;;33.83;18.88;;;18.30;47.70;;;;;;5107498;28;20126;-69
2022/03/22 12:17:44;;;;;;;33.83;19.73;;;18.40;48.50;;;;;;5104399;28;20080;-68
2022/03/22 12:20:13;;;;;;;33.60;19.13;;;18.40;48.40;;;;;;5104496;28;20050;-68
2022/03/22 12:22:45;;;;;;;36.50;19.98;;;18.60;49.10;;;;;;5098385;28;20039;-69
2022/03/22 12:25:17;;;;;;;40.20;20.98;;;18.70;48.80;;;;;;5110517;28;20119;-67
2022/03/22 12:28:02;;;;;;;39.47;20.38;;;18.70;48.40;;;;;;5107774;28;20047;-68
2022/03/22 12:30:33;;;;;;;32.85;18.58;;;18.70;46.90;;;;;;5099690;28;20072;-69
2022/03/22 12:33:02;;;;;;;31.55;18.67;;;18.60;47.00;;;;;;5076028;28;20181;-69
2022/03/22 12:35:29;;;;;;;33.97;18.77;;;18.80;48.50;;;;;;5098788;28;20604;-68
2022/03/22 12:37:57;;;;;;;36.55;18.58;;;18.90;48.60;;;;;;5102005;28;20055;-69
2022/03/22 12:40:23;;;;;;;35.08;20.00;;;18.90;47.50;;;;;;5108864;28;20042;-69
2022/03/22 12:42:50;;;;;;;34.85;19.65;;;18.90;47.50;;;;;;5106197;28;20043;-68
2022/03/22 12:45:17;;;;;;;37.45;20.10;;;19.10;47.70;;;;;;5102353;28;20074;-70
2022/03/22 12:47:44;;;;;;;36.38;19.55;;;19.20;47.80;;;;;;5106755;28;20130;-67
2022/03/22 12:50:11;;;;;;;34.05;19.40;;;19.30;46.40;;;;;;5109695;28;20204;-69
2022/03/22 12:52:37;;;;;;;38.05;20.20;;;19.50;47.00;;;;;;5103769;28;20385;-69
2022/03/22 12:55:05;;;;;;;40.13;20.30;;;20.30;45.60;;;;;;5108657;28;20032;-67
2022/03/22 12:57:31;;;;;;;35.53;19.45;;;21.80;42.60;;;;;;5106838;28;20138;-69
2022/03/22 12:59:57;;;;;;;35.92;19.20;;;22.70;41.60;;;;;;5090956;28;20170;-68
2022/03/22 13:02:23;;;;;;;33.25;19.23;;;23.40;40.40;;;;;;5102517;28;20054;-68
2022/03/22 13:04:51;;;;;;;35.13;18.55;;;22.90;38.90;;;;;;5103277;28;20451;-69